Home > Products > Valid Products > MTR

000
SAUS43 KMQT 241357
MTRP53
METAR KP53 241356Z AUTO 31010KT 06/04 A2896 RMK AO1 SLP809 P0002
T00560039





000
SAUS43 KMQT 241354
MTRP59
METAR KP59 241351Z AUTO 04017G27KT 02/00 A2907 RMK AO1 PK WND
03028/1335 SLP852 P0002 T00170000





000
SAUS43 KMQT 241257
MTRP53
METAR KP53 241256Z AUTO 31011KT 06/04 A2895 RMK AO1 SLP806 P0004
T00560039





000
SAUS43 KMQT 241254
MTRP59
METAR KP59 241251Z AUTO 04018G26KT 03/02 A2906 RMK AO1 PK WND
05029/1153 SLP845 T00280017





000
SAUS43 KMQT 241157
MTRP53
METAR KP53 241156Z AUTO 00000KT 03/02 A2894 RMK AO1 SLP805 P0002
60035 70052 T00330017 10067 20028 56030





000
SAUS43 KMQT 241154
MTRP59
METAR KP59 241151Z AUTO 05019G28KT 04/03 A2904 RMK AO1 PK WND
05028/1142 SLP838 P0004 60021 70023 T00390028 10050 20039 56017





000
SAUS43 KMQT 241057
MTRP53
METAR KP53 241056Z AUTO 20003KT 03/02 A2895 RMK AO1 SLP810 P0005
T00330022





000
SAUS43 KMQT 241054
MTRP59
METAR KP59 241051Z AUTO 03011KT 05/04 A2905 RMK AO1 SLP840 P0006
T00500039





000
SAUS43 KMQT 240957
MTRP53
METAR KP53 240956Z AUTO 00000KT 03/02 A2899 RMK AO1 SLP821 P0007
T00330017





000
SAUS43 KMQT 240952
MTRP59
METAR KP59 240951Z AUTO 06007KT 05/04 A2906 RMK AO1 SLP847 P0005
T00500039





000
SAUS43 KMQT 240952
MTRP59
METAR KP59 240951Z AUTO 06007KT 05/04 A2906 RMK AO1 SLP847 P0005
T00500039





000
SAUS43 KMQT 240857
MTRP53
METAR KP53 240856Z AUTO 00000KT 05/03 A2903 RMK AO1 SLP835 P0010
60021 T00500033 56049





000
SAUS43 KMQT 240853
MTRP59
METAR KP59 240851Z AUTO 09004KT 05/04 A2909 RMK AO1 SLP856 P0002
60006 T00500039 56038





000
SAUS43 KMQT 240803 COR
MTRP53
METAR KP53 240756Z AUTO 30003KT 04/03 A2908 RMK AO1 SLP851 P0007
T00440033





000
SAUS43 KMQT 240754
MTRP59
METAR KP59 240751Z AUTO 09003KT 05/04 A2911 RMK AO1 SLP863 P0002
T00500044





000
SAUS43 KMQT 240657
MTRP53
METAR KP53 240656Z AUTO 32003KT 05/03 A2912 RMK AO1 SLP864 P0004
T00500033





000
SAUS43 KMQT 240653
MTRP59
METAR KP59 240651Z AUTO 00000KT 05/04 A2915 RMK AO1 SLP876 P0002
T00500039





000
SAUS43 KMQT 240557
MTRP53
METAR KP53 240556Z AUTO 00000KT 06/05 A2918 RMK AO1 SLP884 P0002
60016 T00610050 10067 20056 58055





000
SAUS43 KMQT 240554
MTRP59
METAR KP59 240551Z AUTO 00000KT 06/04 A2921 RMK AO1 SLP894 P0001
60002 T00560044 10067 20056 58035





000
SAUS43 KMQT 240458
MTRP53
METAR KP53 240456Z AUTO 00000KT 06/05 A2924 RMK AO1 SLP904 P0002
T00610050 400890006





000
SAUS43 KMQT 240453
MTRP59
METAR KP59 240451Z AUTO VRB03KT 06/04 A2925 RMK AO1 SLP909 P0001
T00560044 400830022





000
SAUS43 KMQT 240357
MTRP53
METAR KP53 240356Z AUTO VRB03KT 07/05 A2929 RMK AO1 SLP922 P0003
T00670050





000
SAUS43 KMQT 240352
MTRP59
METAR KP59 240351Z AUTO 23006KT 06/04 A2928 RMK AO1 SLP921 T00560044





000
SAUS43 KMQT 240257
MTRP53
METAR KP53 240256Z AUTO VRB05KT 06/04 A2934 RMK AO1 SLP940 P0003
60009 T00610044 58032





000
SAUS43 KMQT 240253
MTRP59
METAR KP59 240251Z AUTO 24007KT 06/04 A2931 RMK AO1 SLP931 T00560044
56023





000
SAUS43 KMQT 240157
MTRP53
METAR KP53 240156Z AUTO 20005KT 06/04 A2938 RMK AO1 SLP954 P0003
T00610044





000
SAUS43 KMQT 240157
MTRP53
METAR KP53 240156Z AUTO 20005KT 06/04 A2938 RMK AO1 SLP954 P0003
T00610044





000
SAUS43 KMQT 240154
MTRP59
METAR KP59 240151Z AUTO 24008KT 06/05 A2933 RMK AO1 SLP937 T00610050





000
SAUS43 KMQT 240057
MTRP53
METAR KP53 240056Z AUTO 19006KT 06/04 A2942 RMK AO1 SLP966 P0003
T00610044





000
SAUS43 KMQT 240054
MTRP59
METAR KP59 240051Z AUTO 23009KT 07/05 A2936 RMK AO1 SLP947 T00670050





000
SAUS43 KMQT 232357
MTRP53
METAR KP53 232356Z AUTO 19007KT 06/04 A2944 RMK AO1 SLP974 T00610044
10083 20061 58015





000
SAUS43 KMQT 232354
MTRP59
METAR KP59 232351Z AUTO 22010KT 07/05 A2938 RMK AO1 SLP955 T00670050
10083 20067 58013





000
SAUS43 KMQT 232257
MTRP53
METAR KP53 232256Z AUTO 20005KT 07/05 A2946 RMK AO1 SLP982 T00670050





000
SAUS43 KMQT 232254
MTRP59
METAR KP59 232251Z AUTO 22009G14KT 07/05 A2939 RMK AO1 SLP959
T00670050





000
SAUS43 KMQT 232157
MTRP53
METAR KP53 232156Z AUTO 19006KT 07/05 A2948 RMK AO1 SLP988 T00670050





000
SAUS43 KMQT 232157
MTRP53
METAR KP53 232156Z AUTO 19006KT 07/05 A2948 RMK AO1 SLP988 T00670050





000
SAUS43 KMQT 232154
MTRP59
METAR KP59 232151Z AUTO 23004KT 07/05 A2942 RMK AO1 SLP969 T00720050





000
SAUS43 KMQT 232154
MTRP59
METAR KP59 232151Z AUTO 23004KT 07/05 A2942 RMK AO1 SLP969 T00720050





000
SAUS43 KMQT 232057
MTRP53
METAR KP53 232056Z AUTO 19006KT 07/06 A2949 RMK AO1 SLP990 T00670056
58010





000
SAUS43 KMQT 232054
MTRP59
METAR KP59 232051Z AUTO 23004KT 07/05 A2942 RMK AO1 SLP969 T00720050
56016





000
SAUS43 KMQT 231957
MTRP53
METAR KP53 231956Z AUTO 17007KT 07/06 A2950 RMK AO1 SLP996 T00720056





000
SAUS43 KMQT 231957
MTRP53
METAR KP53 231956Z AUTO 17007KT 07/06 A2950 RMK AO1 SLP996 T00720056





000
SAUS43 KMQT 231953
MTRP59
METAR KP59 231951Z AUTO 00000KT 08/05 A2943 RMK AO1 SLP972 T00830050





000
SAUS43 KMQT 231953
MTRP59
METAR KP59 231951Z AUTO 00000KT 08/05 A2943 RMK AO1 SLP972 T00830050





000
SAUS43 KMQT 231857
MTRP53
METAR KP53 231856Z AUTO 18008KT 08/06 A2951 RMK AO1 SLP999 T00780061





000
SAUS43 KMQT 231854
MTRP59
METAR KP59 231851Z AUTO 22005KT 08/05 A2945 RMK AO1 SLP976 T00780050





000
SAUS43 KMQT 231757
MTRP53
METAR KP53 231756Z AUTO 19012G18KT 08/06 A2952 RMK AO1 SLP000 60001
T00830061 10089 20044 58021





000
SAUS43 KMQT 231752
MTRP59
METAR KP59 231751Z AUTO 24004KT 08/05 A2947 RMK AO1 SLP985 T00780050
10078 20039 58007





000
SAUS43 KMQT 231658
MTRP53
METAR KP53 231656Z AUTO 20010G19KT 08/06 A2956 RMK AO1 SLP016
T00830061





000
SAUS43 KMQT 231656 COR
MTRP59
METAR KP59 231651Z AUTO 25005KT 07/04 A2949 RMK AO1 SLP994 T00670044





000
SAUS43 KMQT 231557
MTRP53
METAR KP53 231556Z AUTO 19012G19KT 08/06 A2958 RMK AO1 SLP023 P0001
T00830061





000
SAUS43 KMQT 231553
MTRP59
METAR KP59 231551Z AUTO 24005KT 06/04 A2950 RMK AO1 SLP998 T00610039





000
SAUS43 KMQT 231553
MTRP59
METAR KP59 231551Z AUTO 24005KT 06/04 A2950 RMK AO1 SLP998 T00610039





000
SAUS43 KMQT 231457
MTRP53
METAR KP53 231456Z AUTO 20011G15KT 08/06 A2958 RMK AO1 SLP023
T00780061 55013





000
SAUS43 KMQT 231453
MTRP59
METAR KP59 231451Z AUTO 23006G16KT 06/04 A2949 RMK AO1 SLP993
T00560039 56012





000
SAUS43 KMQT 231357
MTRP53
METAR KP53 231356Z AUTO 19010G16KT 07/06 A2958 RMK AO1 SLP021
T00720056





000
SAUS43 KMQT 231354
MTRP59
METAR KP59 231351Z AUTO 22012G21KT 05/03 A2950 RMK AO1 SLP996
T00500033





000
SAUS43 KMQT 231257
MTRP53
METAR KP53 231256Z AUTO 19010KT 06/04 A2960 RMK AO1 SLP030 T00610044





000
SAUS43 KMQT 231253
MTRP59
METAR KP59 231251Z AUTO 21008G16KT 04/03 A2951 RMK AO1 SLP002
T00440028





000
SAUS43 KMQT 231157
MTRP53
METAR KP53 231156Z AUTO 20003KT 04/03 A2962 RMK AO1 SLP036 T00440028
10044 20017 56022





000
SAUS43 KMQT 231154
MTRP59
METAR KP59 231151Z AUTO 22012G23KT 04/02 A2953 RMK AO1 SLP006
T00390022 10039 20022 56027





000
SAUS43 KMQT 231057
MTRP53
METAR KP53 231056Z AUTO 20005KT 03/02 A2963 RMK AO1 SLP039 T00330017





000
SAUS43 KMQT 231053
MTRP59
METAR KP59 231051Z AUTO 22006KT 03/01 A2954 RMK AO1 SLP011 T00330006





000
SAUS43 KMQT 230957
MTRP53
METAR KP53 230956Z AUTO VRB05KT 03/01 A2966 RMK AO1 SLP050 T00280011





000
SAUS43 KMQT 230957
MTRP53
METAR KP53 230956Z AUTO VRB05KT 03/01 A2966 RMK AO1 SLP050 T00280011





000
SAUS43 KMQT 230954
MTRP59
METAR KP59 230951Z AUTO 21006KT 02/M01 A2957 RMK AO1 SLP020
T00221006





000
SAUS43 KMQT 230954
MTRP59
METAR KP59 230951Z AUTO 21006KT 02/M01 A2957 RMK AO1 SLP020
T00221006





000
SAUS43 KMQT 230857
MTRP53
METAR KP53 230856Z AUTO 18005KT 03/01 A2968 RMK AO1 SLP058 T00330011
56015





000
SAUS43 KMQT 230852
MTRP59
METAR KP59 230851Z AUTO 19004KT 03/M01 A2961 RMK AO1 SLP034
T00281006 56021





000
SAUS43 KMQT 230803 COR
MTRP53
METAR KP53 230756Z AUTO 19007KT 03/01 A2970 RMK AO1 SLP062 T00330006





000
SAUS43 KMQT 230754
MTRP59
METAR KP59 230751Z AUTO 20004KT 03/00 A2964 RMK AO1 SLP044 T00280000





000
SAUS43 KMQT 230658
MTRP53
METAR KP53 230656Z AUTO 19006KT 03/01 A2970 RMK AO1 SLP064 T00280006





000
SAUS43 KMQT 230654
MTRP59
METAR KP59 230651Z AUTO 19006KT 03/00 A2963 RMK AO1 SLP041 T00330000





000
SAUS43 KMQT 230558
MTRP53
METAR KP53 230556Z AUTO 18005KT 02/M01 A2973 RMK AO1 SLP074
T00171006 10017 21028 50000





000
SAUS43 KMQT 230554
MTRP59
METAR KP59 230551Z AUTO 16004KT 03/00 A2967 RMK AO1 SLP055 T00330000
10033 20017 58004





000
SAUS43 KMQT 230457
MTRP53
METAR KP53 230456Z AUTO 20004KT 00/M02 A2975 RMK AO1 SLP083
T00001017 400501028





000
SAUS43 KMQT 230457
MTRP53
METAR KP53 230456Z AUTO 20004KT 00/M02 A2975 RMK AO1 SLP083
T00001017 400501028





000
SAUS43 KMQT 230453
MTRP59
METAR KP59 230451Z AUTO 00000KT 03/00 A2969 RMK AO1 SLP061 T00280000
400391017





000
SAUS43 KMQT 230357
MTRP53
METAR KP53 230356Z AUTO 18006KT M01/M03 A2974 RMK AO1 SLP078
T10111028





000
SAUS43 KMQT 230357
MTRP53
METAR KP53 230356Z AUTO 18006KT M01/M03 A2974 RMK AO1 SLP078
T10111028





000
SAUS43 KMQT 230352
MTRP59
METAR KP59 230351Z AUTO 16003KT 02/M01 A2968 RMK AO1 SLP058
T00171006





000
SAUS43 KMQT 230257
MTRP53
METAR KP53 230256Z AUTO 18004KT M02/M04 A2973 RMK AO1 SLP075
T10221044 50002





000
SAUS43 KMQT 230252
MTRP59
METAR KP59 230251Z AUTO 25004KT 03/M01 A2969 RMK AO1 SLP061
T00281006 56000





000
SAUS43 KMQT 230157
MTRP53
METAR KP53 230156Z AUTO 20005KT M01/M03 A2974 RMK AO1 SLP078
T10111033





000
SAUS43 KMQT 230154
MTRP59
METAR KP59 230151Z AUTO 24006KT 03/M01 A2969 RMK AO1 SLP062
T00281006





000
SAUS43 KMQT 230057
MTRP53
METAR KP53 230056Z AUTO 19005KT M02/M03 A2973 RMK AO1 SLP076
T10171033





000
SAUS43 KMQT 230054
MTRP59
METAR KP59 230051Z AUTO 24005KT 03/M01 A2968 RMK AO1 SLP061
T00281006





000
SAUS43 KMQT 222357
MTRP53
METAR KP53 222356Z AUTO 20004KT 00/M02 A2972 RMK AO1 SLP073
T00001022 10050 21006 53008





000
SAUS43 KMQT 222354
MTRP59
METAR KP59 222351Z AUTO VRB04KT 03/00 A2969 RMK AO1 SLP062 T00280000
10039 20028 51009





000
SAUS43 KMQT 222257
MTRP53
METAR KP53 222256Z AUTO 21005KT 01/M02 A2971 RMK AO1 SLP070
T00111022





000
SAUS43 KMQT 222254
MTRP59
METAR KP59 222251Z AUTO 25004KT 03/00 A2968 RMK AO1 SLP060 T00280000





000
SAUS43 KMQT 222157
MTRP53
METAR KP53 222156Z AUTO 18003KT 03/M02 A2971 RMK AO1 SLP067
T00281017





000
SAUS43 KMQT 222157
MTRP53
METAR KP53 222156Z AUTO 18003KT 03/M02 A2971 RMK AO1 SLP067
T00281017





000
SAUS43 KMQT 222154
MTRP59
METAR KP59 222151Z AUTO 27004KT 03/01 A2967 RMK AO1 SLP057 T00330006





000
SAUS43 KMQT 222154
MTRP59
METAR KP59 222151Z AUTO 27004KT 03/01 A2967 RMK AO1 SLP057 T00330006





000
SAUS43 KMQT 222057
MTRP53
METAR KP53 222056Z AUTO 19003KT 04/M02 A2970 RMK AO1 SLP064
T00441017 55003





000
SAUS43 KMQT 222054
MTRP59
METAR KP59 222051Z AUTO VRB05KT 04/01 A2966 RMK AO1 SLP052 T00390006
53003





000
SAUS43 KMQT 221957
MTRP53
METAR KP53 221956Z AUTO 18008KT 04/M02 A2969 RMK AO1 SLP061
T00441017





000
SAUS43 KMQT 221952
MTRP59
METAR KP59 221951Z AUTO 29006KT 04/00 A2964 RMK AO1 SLP046 T00390000





000
SAUS43 KMQT 221905 COR
MTRP53
METAR KP53 221856Z AUTO 19008KT 04/M02 A2969 RMK AO1 SLP061
T00391022





000
SAUS43 KMQT 221853
MTRP59
METAR KP59 221851Z AUTO VRB06G15KT 04/M01 A2964 RMK AO1 SLP048
T00391006





000
SAUS43 KMQT 221757
MTRP53
METAR KP53 221756Z AUTO 21007KT 03/M03 A2971 RMK AO1 SLP067
T00331028 10033 20000 58020





000
SAUS43 KMQT 221754
MTRP59
METAR KP59 221751Z AUTO VRB05KT 04/M01 A2965 RMK AO1 SLP049
T00391006 10039 20000 58011





000
SAUS43 KMQT 221657
MTRP53
METAR KP53 221656Z AUTO 20009G16KT 02/M03 A2973 RMK AO1 SLP077
T00221028





000
SAUS43 KMQT 221654
MTRP59
METAR KP59 221651Z AUTO 30008KT 04/M01 A2967 RMK AO1 SLP055
T00391006





000
SAUS43 KMQT 221557
MTRP53
METAR KP53 221556Z AUTO 20010KT 02/M03 A2975 RMK AO1 SLP083
T00171033





000
SAUS43 KMQT 221554
MTRP59
METAR KP59 221551Z AUTO 00000KT 02/M02 A2968 RMK AO1 SLP061
T00221022





000
SAUS43 KMQT 221554
MTRP59
METAR KP59 221551Z AUTO 00000KT 02/M02 A2968 RMK AO1 SLP061
T00221022





000
SAUS43 KMQT 221458
MTRP53
METAR KP53 221456Z AUTO 19007KT 01/M04 A2977 RMK AO1 SLP088
T00111039 55007





000
SAUS43 KMQT 221454
MTRP59
METAR KP59 221451Z AUTO 25006KT 01/M03 A2968 RMK AO1 SLP062
T00111033 58002





000
SAUS43 KMQT 221357
MTRP53
METAR KP53 221356Z AUTO 20007KT 01/M05 A2976 RMK AO1 SLP087
T00061050





000
SAUS43 KMQT 221354
MTRP59
METAR KP59 221351Z AUTO VRB06KT 01/M03 A2968 RMK AO1 SLP064
T00061033





000
SAUS43 KMQT 221257
MTRP53
METAR KP53 221256Z AUTO 19009G17KT 01/M06 A2977 RMK AO1 SLP091
T00061056





000
SAUS43 KMQT 221254
MTRP59
METAR KP59 221251Z AUTO 23007KT 200V260 01/M04 A2969 RMK AO1 SLP064
T00061039





000
SAUS43 KMQT 221157
MTRP53
METAR KP53 221156Z AUTO 20008G17KT 00/M07 A2979 RMK AO1 SLP097
T00001067 10000 21011 56010





000
SAUS43 KMQT 221152
MTRP59
METAR KP59 221151Z AUTO 24007KT 00/M04 A2969 RMK AO1 SLP064
T00001044 10000 21011 56007





000
SAUS43 KMQT 221054
MTRP59
METAR KP59 221051Z AUTO 24006KT 00/M05 A2969 RMK AO1 SLP066
T00001050





000
SAUS43 KMQT 220954
MTRP59
METAR KP59 220951Z AUTO 24005KT 00/M06 A2970 RMK AO1 SLP068
T00001056





000
SAUS43 KMQT 220853
MTRP59
METAR KP59 220851Z AUTO 24007KT 00/M06 A2971 RMK AO1 SLP073
T00001061 56009





000
SAUS43 KMQT 220754
MTRP59
METAR KP59 220751Z AUTO 24003KT 00/M06 A2972 RMK AO1 SLP076
T00001061





000
SAUS43 KMQT 220658
MTRP53
METAR KP53 220656Z AUTO 20008G17KT 170V230 M01/M10 A2985 RMK AO1 PK
WND 19029/0616 SLP117 T10061100





000
SAUS43 KMQT 220653
MTRP59
METAR KP59 220651Z AUTO VRB06KT M01/M07 A2972 RMK AO1 SLP077
T10061072





000
SAUS43 KMQT 220557
MTRP53
METAR KP53 220556Z AUTO 20017G25KT M01/M12 A2985 RMK AO1 PK WND
20035/0513 SLP119 T10111122 11011 21028 56031





000
SAUS43 KMQT 220554
MTRP59
METAR KP59 220551Z AUTO VRB06KT M01/M08 A2974 RMK AO1 SLP084
T10111083 11011 21022 55017





000
SAUS43 KMQT 220457
MTRP53
METAR KP53 220456Z AUTO 20018G25KT M01/M12 A2987 RMK AO1 PK WND
18031/0417 SLP125 T10111122 410111122





000
SAUS43 KMQT 220454
MTRP59
METAR KP59 220451Z AUTO 24009G16KT M02/M09 A2973 RMK AO1 SLP084
T10171094 410111100





000
SAUS43 KMQT 220357
MTRP53
METAR KP53 220356Z AUTO 20017G30KT M01/M12 A2990 RMK AO1 PK WND
19032/0320 SLP134 T10111122





000
SAUS43 KMQT 220357
MTRP53
METAR KP53 220356Z AUTO 20017G30KT M01/M12 A2990 RMK AO1 PK WND
19032/0320 SLP134 T10111122





000
SAUS43 KMQT 220354
MTRP59
METAR KP59 220351Z AUTO 25008G19KT 220V290 M02/M10 A2976 RMK AO1
SLP093 T10221100





000
SAUS43 KMQT 220258
MTRP53
METAR KP53 220256Z AUTO 19014G24KT M02/M13 A2995 RMK AO1 PK WND
21030/0201 SLP152 T10171133 56026





000
SAUS43 KMQT 220254
MTRP59
METAR KP59 220251Z AUTO 26010G19KT 230V320 M02/M11 A2979 RMK AO1 PK
WND 24027/0222 SLP103 T10221106 58027





000
SAUS43 KMQT 220157
MTRP53
METAR KP53 220156Z AUTO 20015G34KT M02/M14 A2997 RMK AO1 PK WND
19034/0152 SLP159 T10171139





000
SAUS43 KMQT 220154
MTRP59
METAR KP59 220151Z AUTO 25012G22KT M02/M11 A2982 RMK AO1 PK WND
25028/0054 SLP113 T10221111





000
SAUS43 KMQT 220057
MTRP53
METAR KP53 220056Z AUTO 20018G26KT M03/M13 A2999 RMK AO1 PK WND
20032/0037 SLP169 T10281133





000
SAUS43 KMQT 220054
MTRP59
METAR KP59 220051Z AUTO 25010G26KT 230V290 M02/M11 A2984 RMK AO1 PK
WND 24029/2355 SLP122 T10171111





000
SAUS43 KMQT 212358
MTRP53
METAR KP53 212356Z AUTO 20016G31KT M03/M14 A3003 RMK AO1 PK WND
19035/2338 SLP179 T10281144 11028 21067 56030





000
SAUS43 KMQT 212353
MTRP59
METAR KP59 212351Z AUTO 25010G22KT M02/M09 A2987 RMK AO1 PK WND
25029/2338 SLP129 T10171094 11011 21067 56034





000
SAUS43 KMQT 212253
MTRP59
METAR KP59 212251Z AUTO 25012G25KT M01/M11 A2990 RMK AO1 PK WND
24027/2207 SLP142 T10111106





000
SAUS43 KMQT 212157
MTRP53
METAR KP53 212156Z AUTO 18015G22KT M04/M12 A3008 RMK AO1 PK WND
19027/2142 SLP199 T10391122





000
SAUS43 KMQT 212154
MTRP59
METAR KP59 212151Z AUTO 24013G26KT M02/M10 A2993 RMK AO1 PK WND
23030/2134 SLP153 T10221100





000
SAUS43 KMQT 212057
MTRP53
METAR KP53 212056Z AUTO 20015G23KT M04/M14 A3012 RMK AO1 SLP210
T10441144 58033





000
SAUS43 KMQT 212054
MTRP59
METAR KP59 212051Z AUTO 24010G20KT 200V270 M03/M11 A2997 RMK AO1
SLP166 T10331106 58040





000
SAUS43 KMQT 211957
MTRP53
METAR KP53 211956Z AUTO 19011G20KT M05/M15 A3015 RMK AO1 SLP222
T10501150





000
SAUS43 KMQT 211953
MTRP59
METAR KP59 211951Z AUTO 24010G19KT M05/M12 A3002 RMK AO1 SLP182
T10501122





000
SAUS43 KMQT 211857
MTRP53
METAR KP53 211856Z AUTO 19013G17KT M05/M14 A3018 RMK AO1 SLP232
T10501144





000
SAUS43 KMQT 211853
MTRP59
METAR KP59 211851Z AUTO 24010G17KT M07/M14 A3006 RMK AO1 SLP197
T10671144





000
SAUS43 KMQT 211757
MTRP53
METAR KP53 211756Z AUTO 19008KT M07/M15 A3022 RMK AO1 SLP244
T10671150 11067 21122 58021





000
SAUS43 KMQT 211753
MTRP59
METAR KP59 211751Z AUTO 24009KT M07/M14 A3009 RMK AO1 SLP208
T10671144 11067 21083 58028





000
SAUS43 KMQT 211657
MTRP53
METAR KP53 211656Z AUTO 19010KT M07/M16 A3025 RMK AO1 SLP256
T10721156





000
SAUS43 KMQT 211653
MTRP59
METAR KP59 211651Z AUTO 24008KT M07/M14 A3013 RMK AO1 SLP222
T10721144





000
SAUS43 KMQT 211557
MTRP53
METAR KP53 211556Z AUTO 21007KT M08/M16 A3027 RMK AO1 SLP264
T10831156





000
SAUS43 KMQT 211557
MTRP53
METAR KP53 211556Z AUTO 21007KT M08/M16 A3027 RMK AO1 SLP264
T10831156





000
SAUS43 KMQT 211553
MTRP59
METAR KP59 211551Z AUTO 25010KT M07/M13 A3016 RMK AO1 SLP232
T10721133





000
SAUS43 KMQT 211553
MTRP59
METAR KP59 211551Z AUTO 25010KT M07/M13 A3016 RMK AO1 SLP232
T10721133





000
SAUS43 KMQT 211457
MTRP53
METAR KP53 211456Z AUTO 21005KT M09/M16 A3028 RMK AO1 SLP267
T10891156 50012





000
SAUS43 KMQT 211452
MTRP59
METAR KP59 211451Z AUTO 26010G16KT M08/M12 A3018 RMK AO1 SLP239
T10831122 55000





    US Dept of Commerce
    National Oceanic and Atmospheric Administration
    National Weather Service
    1325 East West Highway
    Silver Spring, MD 20910
    Page Author: NWS Internet Services Team
Disclaimer
Information Quality
Credits
Glossary
Privacy Policy
Freedom of Information Act (FOIA)
About Us
Career Opportunities